sensor_id;sensor_type;location;lat;lon;timestamp;pressure;altitude;pressure_sealevel;temperature;humidity
70815;BME280;58428;49.478;10.986;2023-06-01T00:00:58;98593.16;;;15.98;100.00
70815;BME280;58428;49.478;10.986;2023-06-01T00:03:26;98594.66;;;15.95;100.00
70815;BME280;58428;49.478;10.986;2023-06-01T00:05:58;98591.59;;;15.97;100.00
70815;BME280;58428;49.478;10.986;2023-06-01T00:08:24;98590.94;;;16.03;100.00
70815;BME280;58428;49.478;10.986;2023-06-01T00:10:50;98594.31;;;15.97;100.00
70815;BME280;58428;49.478;10.986;2023-06-01T00:13:18;98593.38;;;15.89;100.00
70815;BME280;58428;49.478;10.986;2023-06-01T00:15:43;98595.03;;;15.79;100.00
70815;BME280;58428;49.478;10.986;2023-06-01T00:18:08;98588.81;;;15.78;100.00
70815;BME280;58428;49.478;10.986;2023-06-01T00:20:38;98593.66;;;15.69;100.00
70815;BME280;58428;49.478;10.986;2023-06-01T00:23:04;98592.97;;;15.57;100.00
70815;BME280;58428;49.478;10.986;2023-06-01T00:25:30;98596.66;;;15.64;100.00
70815;BME280;58428;49.478;10.986;2023-06-01T00:27:56;98598.31;;;15.69;100.00
70815;BME280;58428;49.478;10.986;2023-06-01T00:30:21;98591.13;;;15.61;100.00
70815;BME280;58428;49.478;10.986;2023-06-01T00:32:47;98594.19;;;15.59;100.00
70815;BME280;58428;49.478;10.986;2023-06-01T00:35:12;98594.09;;;15.56;100.00
70815;BME280;58428;49.478;10.986;2023-06-01T00:37:38;98588.22;;;15.54;100.00
70815;BME280;58428;49.478;10.986;2023-06-01T00:40:03;98591.75;;;15.54;100.00
70815;BME280;58428;49.478;10.986;2023-06-01T00:42:28;98587.06;;;15.55;100.00
70815;BME280;58428;49.478;10.986;2023-06-01T00:44:54;98576.72;;;15.45;100.00
70815;BME280;58428;49.478;10.986;2023-06-01T00:47:20;98579.69;;;15.40;100.00
70815;BME280;58428;49.478;10.986;2023-06-01T00:49:46;98576.97;;;15.40;100.00
70815;BME280;58428;49.478;10.986;2023-06-01T00:52:13;98577.25;;;15.35;100.00
70815;BME280;58428;49.478;10.986;2023-06-01T00:54:39;98575.84;;;15.26;100.00
70815;BME280;58428;49.478;10.986;2023-06-01T00:57:05;98587.59;;;15.14;100.00
70815;BME280;58428;49.478;10.986;2023-06-01T00:59:33;98578.69;;;15.02;100.00
70815;BME280;58428;49.478;10.986;2023-06-01T01:01:59;98584.84;;;14.99;100.00
70815;BME280;58428;49.478;10.986;2023-06-01T01:04:25;98576.41;;;14.89;100.00
70815;BME280;58428;49.478;10.986;2023-06-01T01:09:49;98584.25;;;14.78;100.00
70815;BME280;58428;49.478;10.986;2023-06-01T01:12:27;98584.63;;;14.77;100.00
70815;BME280;58428;49.478;10.986;2023-06-01T01:17:33;98592.00;;;14.76;100.00
70815;BME280;58428;49.478;10.986;2023-06-01T01:20:14;98579.78;;;14.71;100.00
70815;BME280;58428;49.478;10.986;2023-06-01T01:28:35;98595.53;;;14.77;100.00
70815;BME280;58428;49.478;10.986;2023-06-01T01:31:04;98589.97;;;14.73;100.00
70815;BME280;58428;49.478;10.986;2023-06-01T01:33:35;98587.06;;;14.67;100.00
70815;BME280;58428;49.478;10.986;2023-06-01T01:36:01;98588.75;;;14.71;100.00
70815;BME280;58428;49.478;10.986;2023-06-01T01:38:26;98584.44;;;14.70;100.00
70815;BME280;58428;49.478;10.986;2023-06-01T01:40:52;98575.38;;;14.66;100.00
70815;BME280;58428;49.478;10.986;2023-06-01T01:43:21;98578.69;;;14.60;100.00
70815;BME280;58428;49.478;10.986;2023-06-01T01:45:56;98586.44;;;14.58;100.00
70815;BME280;58428;49.478;10.986;2023-06-01T01:48:28;98580.88;;;14.54;100.00
70815;BME280;58428;49.478;10.986;2023-06-01T01:51:02;98579.28;;;14.53;100.00
70815;BME280;58428;49.478;10.986;2023-06-01T01:53:29;98582.38;;;14.52;100.00
70815;BME280;58428;49.478;10.986;2023-06-01T01:55:56;98573.22;;;14.44;100.00
70815;BME280;58428;49.478;10.986;2023-06-01T01:58:23;98576.28;;;14.43;100.00
70815;BME280;58428;49.478;10.986;2023-06-01T02:00:49;98573.34;;;14.36;100.00
70815;BME280;58428;49.478;10.986;2023-06-01T02:03:16;98574.03;;;14.33;100.00
70815;BME280;58428;49.478;10.986;2023-06-01T02:05:42;98568.38;;;14.26;100.00
70815;BME280;58428;49.478;10.986;2023-06-01T02:08:08;98574.19;;;14.25;100.00
70815;BME280;58428;49.478;10.986;2023-06-01T02:10:33;98568.75;;;14.25;100.00
70815;BME280;58428;49.478;10.986;2023-06-01T02:12:59;98563.22;;;14.21;100.00
70815;BME280;58428;49.478;10.986;2023-06-01T02:15:24;98566.03;;;14.25;100.00
70815;BME280;58428;49.478;10.986;2023-06-01T02:17:50;98566.03;;;14.25;100.00
70815;BME280;58428;49.478;10.986;2023-06-01T02:20:16;98562.53;;;14.12;100.00
70815;BME280;58428;49.478;10.986;2023-06-01T02:22:42;98564.25;;;14.17;100.00
70815;BME280;58428;49.478;10.986;2023-06-01T02:25:08;98562.88;;;14.11;100.00
70815;BME280;58428;49.478;10.986;2023-06-01T02:27:34;98561.66;;;14.08;100.00
70815;BME280;58428;49.478;10.986;2023-06-01T02:30:03;98556.75;;;14.14;100.00
70815;BME280;58428;49.478;10.986;2023-06-01T02:32:31;98560.53;;;14.09;100.00
70815;BME280;58428;49.478;10.986;2023-06-01T02:34:58;98561.31;;;14.10;100.00
70815;BME280;58428;49.478;10.986;2023-06-01T02:37:23;98561.09;;;14.03;100.00
70815;BME280;58428;49.478;10.986;2023-06-01T02:39:48;98563.81;;;14.03;100.00
70815;BME280;58428;49.478;10.986;2023-06-01T02:42:14;98563.34;;;14.01;100.00
70815;BME280;58428;49.478;10.986;2023-06-01T02:44:39;98572.66;;;14.00;100.00
70815;BME280;58428;49.478;10.986;2023-06-01T02:47:05;98566.53;;;14.03;100.00
70815;BME280;58428;49.478;10.986;2023-06-01T02:49:31;98559.53;;;14.02;100.00
70815;BME280;58428;49.478;10.986;2023-06-01T02:51:57;98565.06;;;13.94;100.00
70815;BME280;58428;49.478;10.986;2023-06-01T02:54:22;98563.94;;;13.83;100.00
70815;BME280;58428;49.478;10.986;2023-06-01T02:56:47;98563.19;;;13.70;100.00
70815;BME280;58428;49.478;10.986;2023-06-01T02:59:13;98565.69;;;13.63;100.00
70815;BME280;58428;49.478;10.986;2023-06-01T03:01:38;98564.19;;;13.66;100.00
70815;BME280;58428;49.478;10.986;2023-06-01T03:04:04;98566.72;;;13.59;100.00
70815;BME280;58428;49.478;10.986;2023-06-01T03:06:30;98570.66;;;13.61;100.00
70815;BME280;58428;49.478;10.986;2023-06-01T03:09:05;98559.13;;;13.64;100.00
70815;BME280;58428;49.478;10.986;2023-06-01T03:11:30;98555.81;;;13.71;100.00
70815;BME280;58428;49.478;10.986;2023-06-01T03:13:56;98549.94;;;13.69;100.00
70815;BME280;58428;49.478;10.986;2023-06-01T03:16:24;98559.31;;;13.71;100.00
70815;BME280;58428;49.478;10.986;2023-06-01T03:18:51;98558.41;;;13.67;100.00
70815;BME280;58428;49.478;10.986;2023-06-01T03:21:17;98559.78;;;13.61;100.00
70815;BME280;58428;49.478;10.986;2023-06-01T03:23:42;98553.56;;;13.61;100.00
70815;BME280;58428;49.478;10.986;2023-06-01T03:26:10;98553.19;;;13.62;100.00
70815;BME280;58428;49.478;10.986;2023-06-01T03:28:41;98550.16;;;13.64;100.00
70815;BME280;58428;49.478;10.986;2023-06-01T03:31:06;98562.63;;;13.53;100.00
70815;BME280;58428;49.478;10.986;2023-06-01T03:33:32;98555.03;;;13.47;100.00
70815;BME280;58428;49.478;10.986;2023-06-01T03:35:58;98565.13;;;13.46;100.00
70815;BME280;58428;49.478;10.986;2023-06-01T03:38:24;98560.13;;;13.36;100.00
70815;BME280;58428;49.478;10.986;2023-06-01T03:40:51;98556.41;;;13.41;100.00
70815;BME280;58428;49.478;10.986;2023-06-01T03:43:16;98558.31;;;13.40;100.00
70815;BME280;58428;49.478;10.986;2023-06-01T03:45:42;98569.19;;;13.40;100.00
70815;BME280;58428;49.478;10.986;2023-06-01T03:48:07;98565.69;;;13.40;100.00
70815;BME280;58428;49.478;10.986;2023-06-01T03:50:33;98570.44;;;13.43;100.00
70815;BME280;58428;49.478;10.986;2023-06-01T03:52:58;98564.53;;;13.41;100.00
70815;BME280;58428;49.478;10.986;2023-06-01T03:55:24;98558.91;;;13.46;100.00
70815;BME280;58428;49.478;10.986;2023-06-01T03:57:50;98554.94;;;13.55;100.00
70815;BME280;58428;49.478;10.986;2023-06-01T04:00:16;98561.16;;;13.44;100.00
70815;BME280;58428;49.478;10.986;2023-06-01T04:05:36;98566.28;;;13.45;100.00
70815;BME280;58428;49.478;10.986;2023-06-01T04:08:01;98568.09;;;13.41;100.00
70815;BME280;58428;49.478;10.986;2023-06-01T04:10:27;98561.47;;;13.66;100.00
70815;BME280;58428;49.478;10.986;2023-06-01T04:12:52;98564.75;;;13.71;100.00
70815;BME280;58428;49.478;10.986;2023-06-01T04:15:20;98568.03;;;13.77;100.00
70815;BME280;58428;49.478;10.986;2023-06-01T04:17:46;98567.34;;;13.80;100.00
70815;BME280;58428;49.478;10.986;2023-06-01T04:20:13;98563.94;;;13.83;100.00
70815;BME280;58428;49.478;10.986;2023-06-01T04:22:41;98566.78;;;13.86;100.00
70815;BME280;58428;49.478;10.986;2023-06-01T04:25:09;98567.91;;;13.85;100.00
70815;BME280;58428;49.478;10.986;2023-06-01T04:27:37;98565.97;;;13.86;100.00
70815;BME280;58428;49.478;10.986;2023-06-01T04:30:07;98575.84;;;13.90;100.00
70815;BME280;58428;49.478;10.986;2023-06-01T04:32:36;98565.41;;;14.04;100.00
70815;BME280;58428;49.478;10.986;2023-06-01T04:35:06;98568.66;;;14.21;100.00
70815;BME280;58428;49.478;10.986;2023-06-01T04:37:36;98574.25;;;14.40;100.00
70815;BME280;58428;49.478;10.986;2023-06-01T04:40:03;98571.88;;;14.66;100.00
70815;BME280;58428;49.478;10.986;2023-06-01T04:42:33;98572.69;;;14.81;100.00
70815;BME280;58428;49.478;10.986;2023-06-01T04:45:00;98569.53;;;14.95;100.00
70815;BME280;58428;49.478;10.986;2023-06-01T04:47:26;98570.47;;;15.14;100.00
70815;BME280;58428;49.478;10.986;2023-06-01T04:49:52;98568.72;;;15.21;100.00
70815;BME280;58428;49.478;10.986;2023-06-01T04:52:18;98570.03;;;15.27;100.00
70815;BME280;58428;49.478;10.986;2023-06-01T04:54:45;98570.03;;;15.27;100.00
70815;BME280;58428;49.478;10.986;2023-06-01T04:57:11;98564.41;;;15.20;100.00
70815;BME280;58428;49.478;10.986;2023-06-01T04:59:40;98574.19;;;15.09;100.00
70815;BME280;58428;49.478;10.986;2023-06-01T05:02:05;98569.91;;;15.08;100.00
70815;BME280;58428;49.478;10.986;2023-06-01T05:04:31;98571.84;;;15.08;100.00
70815;BME280;58428;49.478;10.986;2023-06-01T05:06:56;98571.47;;;15.09;100.00
70815;BME280;58428;49.478;10.986;2023-06-01T05:09:21;98568.09;;;15.28;100.00
70815;BME280;58428;49.478;10.986;2023-06-01T05:11:47;98562.63;;;15.43;100.00
70815;BME280;58428;49.478;10.986;2023-06-01T05:14:12;98558.75;;;15.44;100.00
70815;BME280;58428;49.478;10.986;2023-06-01T05:16:38;98554.81;;;15.42;100.00
70815;BME280;58428;49.478;10.986;2023-06-01T05:19:06;98559.28;;;15.34;100.00
70815;BME280;58428;49.478;10.986;2023-06-01T05:21:31;98558.16;;;15.35;100.00
70815;BME280;58428;49.478;10.986;2023-06-01T05:23:57;98565.38;;;15.43;100.00
70815;BME280;58428;49.478;10.986;2023-06-01T05:26:22;98553.56;;;15.54;100.00
70815;BME280;58428;49.478;10.986;2023-06-01T05:28:48;98552.38;;;15.71;100.00
70815;BME280;58428;49.478;10.986;2023-06-01T05:31:14;98561.31;;;15.86;100.00
70815;BME280;58428;49.478;10.986;2023-06-01T05:33:39;98564.81;;;15.87;100.00
70815;BME280;58428;49.478;10.986;2023-06-01T05:36:05;98561.84;;;15.92;100.00
70815;BME280;58428;49.478;10.986;2023-06-01T05:38:32;98560.50;;;16.01;100.00
70815;BME280;58428;49.478;10.986;2023-06-01T05:40:58;98544.88;;;16.17;100.00
70815;BME280;58428;49.478;10.986;2023-06-01T05:43:24;98548.13;;;16.22;100.00
70815;BME280;58428;49.478;10.986;2023-06-01T05:45:49;98546.44;;;16.37;100.00
70815;BME280;58428;49.478;10.986;2023-06-01T05:48:15;98549.19;;;16.56;100.00
70815;BME280;58428;49.478;10.986;2023-06-01T05:50:40;98546.56;;;16.62;100.00
70815;BME280;58428;49.478;10.986;2023-06-01T05:53:06;98551.03;;;16.70;100.00
70815;BME280;58428;49.478;10.986;2023-06-01T05:55:32;98543.03;;;16.81;100.00
70815;BME280;58428;49.478;10.986;2023-06-01T05:57:57;98545.75;;;16.99;100.00
70815;BME280;58428;49.478;10.986;2023-06-01T06:00:22;98544.97;;;17.21;100.00
70815;BME280;58428;49.478;10.986;2023-06-01T06:02:48;98537.97;;;17.24;100.00
70815;BME280;58428;49.478;10.986;2023-06-01T06:05:14;98548.22;;;17.30;100.00
70815;BME280;58428;49.478;10.986;2023-06-01T06:07:39;98553.50;;;17.42;100.00
70815;BME280;58428;49.478;10.986;2023-06-01T06:10:05;98550.47;;;17.47;100.00
70815;BME280;58428;49.478;10.986;2023-06-01T06:12:31;98546.28;;;17.53;100.00
70815;BME280;58428;49.478;10.986;2023-06-01T06:14:57;98543.25;;;17.61;100.00
70815;BME280;58428;49.478;10.986;2023-06-01T06:17:22;98547.31;;;17.70;100.00
70815;BME280;58428;49.478;10.986;2023-06-01T06:19:48;98542.81;;;17.81;100.00
70815;BME280;58428;49.478;10.986;2023-06-01T06:22:14;98545.19;;;17.83;100.00
70815;BME280;58428;49.478;10.986;2023-06-01T06:24:40;98549.59;;;17.91;100.00
70815;BME280;58428;49.478;10.986;2023-06-01T06:27:05;98554.47;;;18.04;100.00
70815;BME280;58428;49.478;10.986;2023-06-01T06:29:31;98539.16;;;18.00;100.00
70815;BME280;58428;49.478;10.986;2023-06-01T06:31:57;98541.22;;;18.06;100.00
70815;BME280;58428;49.478;10.986;2023-06-01T06:34:22;98539.00;;;18.15;100.00
70815;BME280;58428;49.478;10.986;2023-06-01T06:36:50;98533.28;;;18.27;100.00
70815;BME280;58428;49.478;10.986;2023-06-01T06:39:18;98535.03;;;18.42;100.00
70815;BME280;58428;49.478;10.986;2023-06-01T06:41:43;98532.09;;;18.57;100.00
70815;BME280;58428;49.478;10.986;2023-06-01T06:44:08;98529.13;;;18.72;100.00
70815;BME280;58428;49.478;10.986;2023-06-01T06:46:34;98533.16;;;18.81;100.00
70815;BME280;58428;49.478;10.986;2023-06-01T06:49:01;98530.06;;;18.86;100.00
70815;BME280;58428;49.478;10.986;2023-06-01T06:51:27;98536.13;;;19.02;100.00
70815;BME280;58428;49.478;10.986;2023-06-01T06:53:52;98530.75;;;19.13;100.00
70815;BME280;58428;49.478;10.986;2023-06-01T06:56:17;98534.41;;;19.27;100.00
70815;BME280;58428;49.478;10.986;2023-06-01T06:58:43;98521.22;;;19.43;100.00
70815;BME280;58428;49.478;10.986;2023-06-01T07:01:11;98527.94;;;19.52;100.00
70815;BME280;58428;49.478;10.986;2023-06-01T07:03:36;98527.59;;;19.57;100.00
70815;BME280;58428;49.478;10.986;2023-06-01T07:06:03;98523.00;;;19.71;100.00
70815;BME280;58428;49.478;10.986;2023-06-01T07:08:30;98531.75;;;19.87;100.00
70815;BME280;58428;49.478;10.986;2023-06-01T07:11:00;98526.34;;;20.01;100.00
70815;BME280;58428;49.478;10.986;2023-06-01T07:13:39;98524.44;;;20.12;100.00
70815;BME280;58428;49.478;10.986;2023-06-01T07:16:22;98528.03;;;20.19;100.00
70815;BME280;58428;49.478;10.986;2023-06-01T07:18:48;98527.66;;;20.28;100.00
70815;BME280;58428;49.478;10.986;2023-06-01T07:21:13;98512.41;;;20.44;100.00
70815;BME280;58428;49.478;10.986;2023-06-01T07:23:42;98516.00;;;20.58;100.00
70815;BME280;58428;49.478;10.986;2023-06-01T07:26:08;98515.31;;;20.75;100.00
70815;BME280;58428;49.478;10.986;2023-06-01T07:28:34;98504.72;;;20.94;100.00
70815;BME280;58428;49.478;10.986;2023-06-01T07:30:59;98500.44;;;21.10;100.00
70815;BME280;58428;49.478;10.986;2023-06-01T07:33:27;98510.28;;;21.25;100.00
70815;BME280;58428;49.478;10.986;2023-06-01T07:35:54;98514.63;;;21.40;100.00
70815;BME280;58428;49.478;10.986;2023-06-01T07:38:20;98498.88;;;21.44;98.04
70815;BME280;58428;49.478;10.986;2023-06-01T07:40:46;98507.16;;;21.47;100.00
70815;BME280;58428;49.478;10.986;2023-06-01T07:46:00;98505.16;;;21.65;98.46
70815;BME280;58428;49.478;10.986;2023-06-01T07:48:25;98501.22;;;21.73;97.89
70815;BME280;58428;49.478;10.986;2023-06-01T07:50:51;98497.28;;;21.81;96.29
70815;BME280;58428;49.478;10.986;2023-06-01T07:53:16;98495.69;;;21.94;97.25
70815;BME280;58428;49.478;10.986;2023-06-01T07:55:43;98498.00;;;22.09;96.67
70815;BME280;58428;49.478;10.986;2023-06-01T07:58:09;98502.69;;;22.12;95.70
70815;BME280;58428;49.478;10.986;2023-06-01T08:00:34;98506.66;;;22.11;94.08
70815;BME280;58428;49.478;10.986;2023-06-01T08:03:01;98502.31;;;22.14;95.14
70815;BME280;58428;49.478;10.986;2023-06-01T08:05:31;98500.72;;;22.23;94.08
70815;BME280;58428;49.478;10.986;2023-06-01T08:07:58;98499.97;;;22.16;92.85
70815;BME280;58428;49.478;10.986;2023-06-01T08:10:23;98499.94;;;22.22;92.03
70815;BME280;58428;49.478;10.986;2023-06-01T08:12:53;98486.13;;;22.36;91.69
70815;BME280;58428;49.478;10.986;2023-06-01T08:15:28;98486.44;;;22.52;92.02
70815;BME280;58428;49.478;10.986;2023-06-01T08:17:56;98491.91;;;22.59;89.87
70815;BME280;58428;49.478;10.986;2023-06-01T08:20:22;98488.78;;;22.57;87.87
70815;BME280;58428;49.478;10.986;2023-06-01T08:22:51;98488.00;;;22.53;86.40
70815;BME280;58428;49.478;10.986;2023-06-01T08:25:16;98481.22;;;22.64;88.29
70815;BME280;58428;49.478;10.986;2023-06-01T08:27:44;98479.97;;;22.79;88.67
70815;BME280;58428;49.478;10.986;2023-06-01T08:30:10;98476.75;;;22.91;87.32
70815;BME280;58428;49.478;10.986;2023-06-01T08:32:37;98479.03;;;23.03;86.51
70815;BME280;58428;49.478;10.986;2023-06-01T08:35:05;98480.56;;;23.11;84.13
70815;BME280;58428;49.478;10.986;2023-06-01T08:37:31;98482.91;;;23.16;80.80
70815;BME280;58428;49.478;10.986;2023-06-01T08:39:56;98482.44;;;23.21;81.67
70815;BME280;58428;49.478;10.986;2023-06-01T08:42:43;98471.75;;;23.26;81.24
70815;BME280;58428;49.478;10.986;2023-06-01T08:45:21;98475.47;;;23.09;75.01
70815;BME280;58428;49.478;10.986;2023-06-01T08:47:48;98473.41;;;23.17;75.15
70815;BME280;58428;49.478;10.986;2023-06-01T08:50:15;98469.06;;;23.19;72.04
70815;BME280;58428;49.478;10.986;2023-06-01T08:52:43;98469.00;;;23.26;68.09
70815;BME280;58428;49.478;10.986;2023-06-01T08:55:09;98473.22;;;23.41;72.74
70815;BME280;58428;49.478;10.986;2023-06-01T08:57:35;98471.88;;;23.59;71.53
70815;BME280;58428;49.478;10.986;2023-06-01T09:00:01;98468.19;;;23.76;68.11
70815;BME280;58428;49.478;10.986;2023-06-01T09:02:27;98482.88;;;23.66;59.69
70815;BME280;58428;49.478;10.986;2023-06-01T09:04:53;98474.84;;;23.78;66.72
70815;BME280;58428;49.478;10.986;2023-06-01T09:07:19;98472.28;;;23.98;60.53
70815;BME280;58428;49.478;10.986;2023-06-01T09:09:45;98468.94;;;24.13;61.95
70815;BME280;58428;49.478;10.986;2023-06-01T09:12:50;98472.28;;;24.34;60.32
70815;BME280;58428;49.478;10.986;2023-06-01T09:15:18;98457.69;;;24.60;61.65
70815;BME280;58428;49.478;10.986;2023-06-01T09:17:51;98465.34;;;24.78;58.52
70815;BME280;58428;49.478;10.986;2023-06-01T09:20:27;98462.41;;;24.92;55.09
70815;BME280;58428;49.478;10.986;2023-06-01T09:22:54;98453.72;;;25.16;60.88
70815;BME280;58428;49.478;10.986;2023-06-01T09:25:27;98449.81;;;25.37;56.69
70815;BME280;58428;49.478;10.986;2023-06-01T09:27:54;98455.84;;;25.32;54.01
70815;BME280;58428;49.478;10.986;2023-06-01T09:30:21;98450.53;;;25.41;58.81
70815;BME280;58428;49.478;10.986;2023-06-01T09:32:47;98452.25;;;25.57;57.50
70815;BME280;58428;49.478;10.986;2023-06-01T09:38:02;98449.97;;;25.94;55.51
70815;BME280;58428;49.478;10.986;2023-06-01T09:40:31;98446.56;;;26.06;50.57
70815;BME280;58428;49.478;10.986;2023-06-01T09:42:57;98443.84;;;26.26;53.79
70815;BME280;58428;49.478;10.986;2023-06-01T09:45:23;98446.13;;;26.30;50.53
70815;BME280;58428;49.478;10.986;2023-06-01T09:47:50;98443.88;;;26.41;51.74
70815;BME280;58428;49.478;10.986;2023-06-01T09:50:37;98445.38;;;26.46;46.13
70815;BME280;58428;49.478;10.986;2023-06-01T09:53:04;98443.25;;;26.34;47.14
70815;BME280;58428;49.478;10.986;2023-06-01T09:55:32;98431.91;;;26.64;48.88
70815;BME280;58428;49.478;10.986;2023-06-01T09:58:17;98425.13;;;26.84;45.63
70815;BME280;58428;49.478;10.986;2023-06-01T10:00:45;98424.09;;;27.09;49.69
70815;BME280;58428;49.478;10.986;2023-06-01T10:03:16;98422.00;;;27.13;43.63
70815;BME280;58428;49.478;10.986;2023-06-01T10:05:46;98416.72;;;27.19;44.20
70815;BME280;58428;49.478;10.986;2023-06-01T10:08:13;98416.81;;;27.31;45.99
70815;BME280;58428;49.478;10.986;2023-06-01T10:10:48;98420.91;;;27.42;42.10
70815;BME280;58428;49.478;10.986;2023-06-01T10:13:14;98419.41;;;27.22;38.78
70815;BME280;58428;49.478;10.986;2023-06-01T10:15:40;98425.13;;;27.00;40.23
70815;BME280;58428;49.478;10.986;2023-06-01T10:18:06;98424.34;;;26.99;41.17
70815;BME280;58428;49.478;10.986;2023-06-01T10:20:38;98419.78;;;26.73;41.16
70815;BME280;58428;49.478;10.986;2023-06-01T10:23:05;98420.63;;;26.70;40.92
70815;BME280;58428;49.478;10.986;2023-06-01T10:25:42;98415.13;;;26.86;41.91
70815;BME280;58428;49.478;10.986;2023-06-01T10:28:11;98411.34;;;27.12;43.61
70815;BME280;58428;49.478;10.986;2023-06-01T10:30:37;98414.63;;;27.38;42.38
70815;BME280;58428;49.478;10.986;2023-06-01T10:33:03;98413.78;;;27.26;37.85
70815;BME280;58428;49.478;10.986;2023-06-01T10:38:21;98413.75;;;26.59;36.00
70815;BME280;58428;49.478;10.986;2023-06-01T10:40:48;98407.69;;;26.64;37.87
70815;BME280;58428;49.478;10.986;2023-06-01T10:43:52;98398.47;;;26.86;39.12
70815;BME280;58428;49.478;10.986;2023-06-01T10:46:39;98395.28;;;27.03;40.71
70815;BME280;58428;49.478;10.986;2023-06-01T10:49:05;98395.34;;;26.84;42.08
70815;BME280;58428;49.478;10.986;2023-06-01T10:51:31;98396.56;;;26.48;42.51
70815;BME280;58428;49.478;10.986;2023-06-01T10:57:20;98390.22;;;26.48;43.66
70815;BME280;58428;49.478;10.986;2023-06-01T11:02:44;98390.69;;;26.27;43.06
70815;BME280;58428;49.478;10.986;2023-06-01T11:08:49;98403.78;;;26.07;42.48
70815;BME280;58428;49.478;10.986;2023-06-01T11:11:09;98396.22;;;25.89;45.21
70815;BME280;58428;49.478;10.986;2023-06-01T11:13:36;98395.00;;;25.89;45.45
70815;BME280;58428;49.478;10.986;2023-06-01T11:18:55;98383.50;;;25.91;44.18
70815;BME280;58428;49.478;10.986;2023-06-01T11:21:36;98391.47;;;26.27;44.02
70815;BME280;58428;49.478;10.986;2023-06-01T11:24:05;98380.03;;;26.26;42.82
70815;BME280;58428;49.478;10.986;2023-06-01T11:26:35;98378.75;;;26.46;43.23
70815;BME280;58428;49.478;10.986;2023-06-01T11:34:08;98368.66;;;26.71;42.19
70815;BME280;58428;49.478;10.986;2023-06-01T11:36:49;98353.03;;;26.77;43.05
70815;BME280;58428;49.478;10.986;2023-06-01T11:39:25;98360.31;;;27.06;42.03
70815;BME280;58428;49.478;10.986;2023-06-01T11:42:16;98357.53;;;27.06;40.06
70815;BME280;58428;49.478;10.986;2023-06-01T11:44:46;98353.69;;;27.16;41.16
70815;BME280;58428;49.478;10.986;2023-06-01T11:47:20;98353.53;;;26.91;41.59
70815;BME280;58428;49.478;10.986;2023-06-01T11:49:47;98343.72;;;26.87;42.01
70815;BME280;58428;49.478;10.986;2023-06-01T11:52:31;98346.31;;;26.94;41.83
70815;BME280;58428;49.478;10.986;2023-06-01T11:55:04;98344.66;;;26.96;41.42
70815;BME280;58428;49.478;10.986;2023-06-01T11:57:30;98338.56;;;27.17;42.77
70815;BME280;58428;49.478;10.986;2023-06-01T11:59:55;98339.81;;;27.16;40.88
70815;BME280;58428;49.478;10.986;2023-06-01T12:02:29;98333.78;;;27.33;42.19
70815;BME280;58428;49.478;10.986;2023-06-01T12:05:02;98330.88;;;27.52;41.42
70815;BME280;58428;49.478;10.986;2023-06-01T12:07:34;98333.44;;;27.47;39.07
70815;BME280;58428;49.478;10.986;2023-06-01T12:10:10;98332.03;;;27.39;39.48
70815;BME280;58428;49.478;10.986;2023-06-01T12:12:39;98334.69;;;27.14;38.75
70815;BME280;58428;49.478;10.986;2023-06-01T12:15:05;98334.97;;;27.04;37.75
70815;BME280;58428;49.478;10.986;2023-06-01T12:17:50;98332.41;;;26.78;38.78
70815;BME280;58428;49.478;10.986;2023-06-01T12:20:30;98334.53;;;26.90;39.07
70815;BME280;58428;49.478;10.986;2023-06-01T12:22:57;98326.84;;;26.78;38.10
70815;BME280;58428;49.478;10.986;2023-06-01T12:25:23;98321.31;;;26.94;39.42
70815;BME280;58428;49.478;10.986;2023-06-01T12:28:07;98321.41;;;27.22;38.60
70815;BME280;58428;49.478;10.986;2023-06-01T12:30:33;98323.53;;;27.46;38.94
70815;BME280;58428;49.478;10.986;2023-06-01T12:32:58;98312.22;;;27.53;38.24
70815;BME280;58428;49.478;10.986;2023-06-01T12:35:25;98310.16;;;27.41;36.75
70815;BME280;58428;49.478;10.986;2023-06-01T12:38:07;98316.09;;;27.43;36.48
70815;BME280;58428;49.478;10.986;2023-06-01T12:40:35;98310.25;;;27.66;38.09
70815;BME280;58428;49.478;10.986;2023-06-01T12:43:01;98312.41;;;27.74;36.46
70815;BME280;58428;49.478;10.986;2023-06-01T12:45:48;98308.16;;;27.70;36.55
70815;BME280;58428;49.478;10.986;2023-06-01T12:48:41;98300.72;;;27.67;35.53
70815;BME280;58428;49.478;10.986;2023-06-01T12:51:06;98304.69;;;27.66;36.03
70815;BME280;58428;49.478;10.986;2023-06-01T12:53:33;98292.69;;;27.56;37.19
70815;BME280;58428;49.478;10.986;2023-06-01T12:55:58;98297.03;;;27.70;35.61
70815;BME280;58428;49.478;10.986;2023-06-01T12:58:24;98302.72;;;27.66;35.37
70815;BME280;58428;49.478;10.986;2023-06-01T13:00:49;98299.44;;;27.55;36.04
70815;BME280;58428;49.478;10.986;2023-06-01T13:03:15;98299.56;;;27.36;35.08
70815;BME280;58428;49.478;10.986;2023-06-01T13:05:42;98297.41;;;27.43;35.45
70815;BME280;58428;49.478;10.986;2023-06-01T13:08:17;98284.34;;;27.40;35.17
70815;BME280;58428;49.478;10.986;2023-06-01T13:10:43;98280.97;;;27.49;36.13
70815;BME280;58428;49.478;10.986;2023-06-01T13:13:09;98277.56;;;27.70;35.53
70815;BME280;58428;49.478;10.986;2023-06-01T13:15:39;98271.91;;;27.73;35.66
70815;BME280;58428;49.478;10.986;2023-06-01T13:18:05;98266.41;;;27.85;35.57
70815;BME280;58428;49.478;10.986;2023-06-01T13:20:30;98260.78;;;28.14;35.63
70815;BME280;58428;49.478;10.986;2023-06-01T13:22:56;98268.91;;;28.33;34.99
70815;BME280;58428;49.478;10.986;2023-06-01T13:25:23;98263.47;;;28.42;35.61
70815;BME280;58428;49.478;10.986;2023-06-01T13:27:50;98265.13;;;28.27;35.55
70815;BME280;58428;49.478;10.986;2023-06-01T13:30:16;98259.66;;;28.23;36.45